createdAt,value
2022-10-15T00:00:40.599Z,100293.05
2022-10-15T00:03:33.009Z,100290.48
2022-10-15T00:06:08.493Z,100288.56
2022-10-15T00:08:41.248Z,100284.02
2022-10-15T00:11:14.708Z,100287.93
2022-10-15T00:13:46.738Z,100283.16
2022-10-15T00:16:19.930Z,100282.94
2022-10-15T00:18:52.628Z,100278.40
2022-10-15T00:21:24.715Z,100273.64
2022-10-15T00:23:57.322Z,100275.95
2022-10-15T00:26:31.317Z,100279.34
2022-10-15T00:29:04.788Z,100280.88
2022-10-15T00:31:36.852Z,100277.94
2022-10-15T00:34:12.211Z,100277.89
2022-10-15T00:36:44.056Z,100270.33
2022-10-15T00:39:16.109Z,100266.02
2022-10-15T00:41:48.384Z,100263.15
2022-10-15T00:44:55.627Z,100256.23
2022-10-15T00:47:31.633Z,100253.39
2022-10-15T00:50:12.834Z,100258.63
2022-10-15T00:52:56.336Z,100256.35
2022-10-15T00:55:32.718Z,100249.27
2022-10-15T00:58:07.712Z,100248.82
2022-10-15T01:00:40.412Z,100245.39
2022-10-15T01:03:13.414Z,100248.73
2022-10-15T01:05:49.043Z,100242.95
2022-10-15T01:08:21.010Z,100236.36
2022-10-15T01:10:59.865Z,100232.77
2022-10-15T01:13:39.270Z,100238.08
2022-10-15T01:16:19.608Z,100235.27
2022-10-15T01:18:59.665Z,100229.52
2022-10-15T01:21:37.114Z,100226.96
2022-10-15T01:24:39.713Z,100227.13
2022-10-15T01:27:23.365Z,100222.27
2022-10-15T01:30:28.221Z,100218.84
2022-10-15T01:33:17.013Z,100205.34
2022-10-15T01:35:53.339Z,100203.19
2022-10-15T01:38:36.057Z,100200.40
2022-10-15T01:41:15.246Z,100195.60
2022-10-15T01:43:52.924Z,100193.05
2022-10-15T01:46:53.537Z,100189.29
2022-10-15T01:49:31.413Z,100186.80
2022-10-15T01:52:12.545Z,100186.00
2022-10-15T01:54:47.038Z,100183.59
2022-10-15T01:57:22.218Z,100181.67
2022-10-15T01:59:56.419Z,100182.63
2022-10-15T02:02:29.050Z,100182.54
2022-10-15T02:05:01.458Z,100181.02
2022-10-15T02:07:42.094Z,100170.00
2022-10-15T02:10:20.602Z,100165.45
2022-10-15T02:13:10.113Z,100164.00
2022-10-15T02:15:51.644Z,100162.46
2022-10-15T02:18:30.959Z,100162.23
2022-10-15T02:21:08.842Z,100158.33
2022-10-15T02:23:46.536Z,100132.09
2022-10-15T02:26:19.899Z,100150.17
2022-10-15T02:28:56.384Z,100149.14
2022-10-15T02:31:31.332Z,100143.64
2022-10-15T02:34:07.495Z,100142.66
2022-10-15T02:36:43.907Z,100139.33
2022-10-15T02:39:20.188Z,100134.70
2022-10-15T02:41:54.041Z,100136.48
2022-10-15T02:44:26.225Z,100137.74
2022-10-15T02:46:58.981Z,100138.86
2022-10-15T02:49:30.967Z,100135.92
2022-10-15T02:52:03.178Z,100128.91
2022-10-15T02:54:35.275Z,100126.66
2022-10-15T02:57:07.272Z,100126.74
2022-10-15T02:59:39.896Z,100120.37
2022-10-15T03:02:15.389Z,100119.96
2022-10-15T03:04:50.783Z,100121.33
2022-10-15T03:07:23.870Z,100121.09
2022-10-15T03:09:56.579Z,100115.73
2022-10-15T03:12:29.042Z,100109.05
2022-10-15T03:15:01.677Z,100108.65
2022-10-15T03:17:34.247Z,100106.65
2022-10-15T03:20:07.433Z,100104.82
2022-10-15T03:22:42.256Z,100101.94
2022-10-15T03:25:15.463Z,100100.69
2022-10-15T03:27:47.677Z,100095.98
2022-10-15T03:30:28.055Z,100095.98
2022-10-15T03:33:00.307Z,100095.63
2022-10-15T03:35:32.562Z,100095.55
2022-10-15T03:38:04.693Z,100096.40
2022-10-15T03:40:37.314Z,100092.00
2022-10-15T03:43:35.394Z,100092.04
2022-10-15T03:46:09.722Z,100091.73
2022-10-15T03:48:45.584Z,100086.30
2022-10-15T03:51:22.009Z,100089.58
2022-10-15T03:54:00.953Z,100088.70
2022-10-15T03:56:33.086Z,100084.05
2022-10-15T03:59:18.901Z,100082.72
2022-10-15T04:01:54.415Z,100080.40
2022-10-15T04:04:26.386Z,100081.36
2022-10-15T04:06:58.394Z,100083.66
2022-10-15T04:09:30.597Z,100088.44
2022-10-15T04:12:23.135Z,100089.25
2022-10-15T04:14:55.549Z,100089.90
2022-10-15T04:17:27.456Z,100081.36
2022-10-15T04:19:59.411Z,100081.04
2022-10-15T04:22:31.741Z,100079.36
2022-10-15T04:25:05.677Z,100076.89
2022-10-15T04:27:37.781Z,100078.41
2022-10-15T04:30:15.169Z,100074.89
2022-10-15T04:32:52.312Z,100073.21
2022-10-15T04:35:24.478Z,100069.38
2022-10-15T04:38:19.383Z,100067.55
2022-10-15T04:41:08.237Z,100065.32
2022-10-15T04:44:06.979Z,100066.27
2022-10-15T04:46:38.904Z,100066.58
2022-10-15T04:49:26.519Z,100071.55
2022-10-15T04:51:58.749Z,100068.27
2022-10-15T04:54:36.105Z,100065.70
2022-10-15T04:57:10.289Z,100069.22
2022-10-15T04:59:44.472Z,100068.58
2022-10-15T05:02:22.165Z,100061.30
2022-10-15T05:04:59.302Z,100070.80
2022-10-15T05:07:31.468Z,100064.17
2022-10-15T05:10:03.516Z,100064.65
2022-10-15T05:12:37.637Z,100059.30
2022-10-15T05:15:15.417Z,100062.73
2022-10-15T05:17:47.477Z,100068.17
2022-10-15T05:20:20.076Z,100070.23
2022-10-15T05:22:52.217Z,100073.84
2022-10-15T05:25:26.092Z,100076.55
2022-10-15T05:27:59.376Z,100074.64
2022-10-15T05:30:31.322Z,100071.36
2022-10-15T05:33:03.266Z,100070.39
2022-10-15T05:35:35.067Z,100072.88
2022-10-15T05:38:11.257Z,100074.08
2022-10-15T05:40:48.392Z,100070.89
2022-10-15T05:43:25.774Z,100073.84
2022-10-15T05:45:58.817Z,100068.89
2022-10-15T05:48:31.239Z,100063.30
2022-10-15T05:51:08.288Z,100058.81
2022-10-15T05:53:43.348Z,100062.73
2022-10-15T05:56:17.147Z,100047.72
2022-10-15T05:58:51.739Z,100059.94
2022-10-15T06:01:23.854Z,100060.66
2022-10-15T06:03:58.816Z,100058.48
2022-10-15T06:06:31.403Z,100060.73
2022-10-15T06:09:03.372Z,100057.21
2022-10-15T06:11:35.243Z,100055.28
2022-10-15T06:14:07.129Z,100049.45
2022-10-15T06:16:39.374Z,100053.61
2022-10-15T06:19:11.916Z,100059.13
2022-10-15T06:21:43.758Z,100067.20
2022-10-15T06:24:15.726Z,100078.71
2022-10-15T06:26:47.659Z,100081.52
2022-10-15T06:29:19.741Z,100086.21
2022-10-15T06:31:51.673Z,100089.81
2022-10-15T06:34:23.598Z,100092.70
2022-10-15T06:36:55.483Z,100098.36
2022-10-15T06:39:27.555Z,100099.40
2022-10-15T06:41:59.528Z,100100.91
2022-10-15T06:44:43.511Z,100101.64
2022-10-15T06:47:16.232Z,100103.16
2022-10-15T06:49:48.107Z,100107.95
2022-10-15T06:52:20.738Z,100108.02
2022-10-15T06:54:53.160Z,100106.04
2022-10-15T06:57:28.132Z,100099.80
2022-10-15T07:00:00.084Z,100101.40
2022-10-15T07:02:32.048Z,100101.39
2022-10-15T07:05:04.036Z,100101.00
2022-10-15T07:07:36.570Z,100083.50
2022-10-15T07:10:10.111Z,100102.20
2022-10-15T07:12:45.296Z,100103.15
2022-10-15T07:15:17.546Z,100098.35
2022-10-15T07:17:56.728Z,100094.91
2022-10-15T07:20:29.323Z,100089.38
2022-10-15T07:23:03.513Z,100086.77
2022-10-15T07:25:35.944Z,100090.12
2022-10-15T07:28:08.146Z,100088.52
2022-10-15T07:30:40.069Z,100092.36
2022-10-15T07:33:12.183Z,100090.60
2022-10-15T07:35:49.863Z,100090.34
2022-10-15T07:38:21.722Z,100088.98
2022-10-15T07:40:54.017Z,100092.66
2022-10-15T07:43:26.515Z,100096.89
2022-10-15T07:45:58.867Z,100096.64
2022-10-15T07:48:31.486Z,100089.92
2022-10-15T07:51:06.140Z,100087.52
2022-10-15T07:53:36.697Z,100086.77
2022-10-15T07:56:12.129Z,100086.45
2022-10-15T07:58:51.607Z,100089.41
2022-10-15T08:01:24.007Z,100089.34
2022-10-15T08:03:56.131Z,100088.92
2022-10-15T08:06:29.891Z,100089.80
2022-10-15T08:09:02.359Z,100093.73
2022-10-15T08:11:34.576Z,100088.46
2022-10-15T08:14:06.474Z,100081.91
2022-10-15T08:16:38.484Z,100093.33
2022-10-15T08:19:10.712Z,100094.92
2022-10-15T08:21:45.236Z,100099.48
2022-10-15T08:24:19.550Z,100102.24
2022-10-15T08:26:51.539Z,100105.11
2022-10-15T08:29:23.408Z,100104.14
2022-10-15T08:31:55.355Z,100104.45
2022-10-15T08:34:29.051Z,100114.46
2022-10-15T08:37:01.199Z,100111.38
2022-10-15T08:39:33.226Z,100103.64
2022-10-15T08:42:13.219Z,100114.81
2022-10-15T08:44:48.518Z,100119.92
2022-10-15T08:47:30.179Z,100117.76
2022-10-15T08:50:04.011Z,100122.77
2022-10-15T08:52:46.186Z,100116.75
2022-10-15T08:55:20.053Z,100118.88
2022-10-15T08:57:58.096Z,100120.30
2022-10-15T09:00:36.692Z,100118.60
2022-10-15T09:03:18.955Z,100118.90
2022-10-15T09:05:58.771Z,100119.93
2022-10-15T09:08:38.440Z,100121.93
2022-10-15T09:11:18.939Z,100126.65
2022-10-15T09:13:52.147Z,100126.53
2022-10-15T09:16:33.574Z,100123.33
2022-10-15T09:19:16.313Z,100124.97
2022-10-15T09:21:50.026Z,100125.83
2022-10-15T09:24:25.545Z,100128.11
2022-10-15T09:27:06.814Z,100126.70
2022-10-15T09:29:45.611Z,100130.08
2022-10-15T09:32:22.812Z,100126.87
2022-10-15T09:35:02.020Z,100131.02
2022-10-15T09:37:47.997Z,100130.39
2022-10-15T09:40:45.982Z,100132.33
2022-10-15T09:43:31.202Z,100130.80
2022-10-15T09:46:03.801Z,100128.66
2022-10-15T09:48:40.154Z,100127.23
2022-10-15T09:51:19.498Z,100129.88
2022-10-15T09:53:57.469Z,100135.13
2022-10-15T09:56:36.692Z,100138.28
2022-10-15T09:59:09.668Z,100140.09
2022-10-15T10:01:41.727Z,100145.42
2022-10-15T10:04:18.586Z,100151.70
2022-10-15T10:06:53.928Z,100147.34
2022-10-15T10:09:31.795Z,100147.73
2022-10-15T10:12:07.558Z,100146.77
2022-10-15T10:14:46.477Z,100154.38
2022-10-15T10:17:22.455Z,100136.77
2022-10-15T10:20:14.694Z,100146.16
2022-10-15T10:22:51.484Z,100129.33
2022-10-15T10:25:33.946Z,100144.92
2022-10-15T10:28:20.788Z,100129.34
2022-10-15T10:31:03.526Z,100148.94
2022-10-15T10:33:43.630Z,100146.23
2022-10-15T10:36:26.732Z,100143.23
2022-10-15T10:39:02.602Z,100136.33
2022-10-15T10:41:51.960Z,100139.73
2022-10-15T10:44:29.412Z,100141.61
2022-10-15T10:47:18.663Z,100143.45
2022-10-15T10:49:53.624Z,100144.59
2022-10-15T10:52:28.499Z,100144.48
2022-10-15T10:55:02.898Z,100148.23
2022-10-15T10:57:45.382Z,100150.95
2022-10-15T11:00:21.529Z,100152.84
2022-10-15T11:02:54.349Z,100155.45
2022-10-15T11:05:29.888Z,100154.67
2022-10-15T11:08:11.633Z,100151.56
2022-10-15T11:10:54.772Z,100147.44
2022-10-15T11:13:43.566Z,100145.34
2022-10-15T11:16:26.472Z,100140.20
2022-10-15T11:19:19.095Z,100129.69
2022-10-15T11:22:27.300Z,100130.80
2022-10-15T11:25:08.176Z,100130.33
2022-10-15T11:27:54.459Z,100125.67
2022-10-15T11:30:43.154Z,100123.80
2022-10-15T11:33:31.606Z,100120.41
2022-10-15T11:36:21.971Z,100118.78
2022-10-15T11:39:01.342Z,100119.47
2022-10-15T11:41:46.225Z,100115.93
2022-10-15T11:44:32.875Z,100119.73
2022-10-15T11:47:19.185Z,100124.41
2022-10-15T11:49:56.791Z,100131.49
2022-10-15T11:52:46.109Z,100134.66
2022-10-15T11:55:22.727Z,100137.18
2022-10-15T11:58:00.091Z,100136.40
2022-10-15T12:00:37.030Z,100136.87
2022-10-15T12:03:16.422Z,100137.41
2022-10-15T12:05:54.997Z,100132.95
2022-10-15T12:08:32.003Z,100133.91
2022-10-15T12:11:16.037Z,100137.31
2022-10-15T12:13:57.240Z,100136.89
2022-10-15T12:16:38.416Z,100138.75
2022-10-15T12:19:18.477Z,100140.41
2022-10-15T12:22:11.343Z,100139.64
2022-10-15T12:24:56.577Z,100143.30
2022-10-15T12:27:34.611Z,100136.30
2022-10-15T12:30:25.790Z,100138.83
2022-10-15T12:32:59.100Z,100131.97
2022-10-15T12:35:37.513Z,100128.98
2022-10-15T12:38:26.393Z,100126.89
2022-10-15T12:41:10.602Z,100122.06
2022-10-15T12:43:45.811Z,100124.45
2022-10-15T12:46:18.202Z,100117.84
2022-10-15T12:48:54.084Z,100114.31
2022-10-15T12:51:35.580Z,100110.29
2022-10-15T12:54:39.507Z,100102.82
2022-10-15T12:57:45.629Z,100109.09
2022-10-15T13:00:41.666Z,100109.20
2022-10-15T13:03:40.507Z,100111.80
2022-10-15T13:06:28.052Z,100115.51
2022-10-15T13:09:07.335Z,100115.59
2022-10-15T13:11:42.951Z,100117.75
2022-10-15T13:14:25.883Z,100126.72
2022-10-15T13:17:02.506Z,100125.67
2022-10-15T13:19:39.596Z,100124.73
2022-10-15T13:22:24.817Z,100121.63
2022-10-15T13:24:58.113Z,100128.50
2022-10-15T13:27:36.911Z,100118.63
2022-10-15T13:30:15.867Z,100123.64
2022-10-15T13:32:49.972Z,100119.36
2022-10-15T13:35:26.157Z,100110.05
2022-10-15T13:37:59.145Z,100110.05
2022-10-15T13:40:32.823Z,100106.81
2022-10-15T13:43:06.294Z,100114.80
2022-10-15T13:45:39.864Z,100114.06
2022-10-15T13:48:22.055Z,100115.61
2022-10-15T13:50:56.061Z,100117.45
2022-10-15T13:53:31.396Z,100119.20
2022-10-15T13:56:06.504Z,100127.30
2022-10-15T13:58:39.860Z,100126.79
2022-10-15T14:01:16.221Z,100130.66
2022-10-15T14:03:51.600Z,100125.74
2022-10-15T14:06:25.368Z,100131.02
2022-10-15T14:08:59.370Z,100131.00
2022-10-15T14:11:40.085Z,100131.58
2022-10-15T14:14:33.133Z,100129.73
2022-10-15T14:17:07.262Z,100128.57
2022-10-15T14:19:40.564Z,100127.31
2022-10-15T14:22:23.331Z,100127.98
2022-10-15T14:24:56.756Z,100128.27
2022-10-15T14:27:31.253Z,100123.33
2022-10-15T14:30:03.506Z,100123.80
2022-10-15T14:32:48.752Z,100126.35
2022-10-15T14:35:34.278Z,100125.09
2022-10-15T14:38:16.505Z,100125.98
2022-10-15T14:41:06.357Z,100129.20
2022-10-15T14:43:40.330Z,100129.54
2022-10-15T14:46:20.444Z,100133.27
2022-10-15T14:48:52.698Z,100131.44
2022-10-15T14:51:26.985Z,100135.48
2022-10-15T14:53:59.969Z,100120.95
2022-10-15T14:56:35.409Z,100129.30
2022-10-15T14:59:09.265Z,100130.28
2022-10-15T15:01:42.420Z,100129.34
2022-10-15T15:04:38.222Z,100128.60
2022-10-15T15:07:18.659Z,100130.69
2022-10-15T15:09:54.156Z,100133.61
2022-10-15T15:12:29.155Z,100135.45
2022-10-15T15:15:02.267Z,100141.27
2022-10-15T15:17:34.394Z,100147.46
2022-10-15T15:20:07.612Z,100154.40
2022-10-15T15:22:41.861Z,100153.92
2022-10-15T15:25:19.495Z,100154.63
2022-10-15T15:27:51.305Z,100157.79
2022-10-15T15:30:26.670Z,100158.38
2022-10-15T15:33:00.678Z,100157.90
2022-10-15T15:35:38.015Z,100154.37
2022-10-15T15:38:10.924Z,100158.40
2022-10-15T15:40:43.360Z,100160.27
2022-10-15T15:43:17.525Z,100159.64
2022-10-15T15:45:49.625Z,100161.20
2022-10-15T15:48:21.556Z,100171.34
2022-10-15T15:50:54.379Z,100171.46
2022-10-15T15:53:26.362Z,100172.32
2022-10-15T15:55:59.747Z,100171.79
2022-10-15T15:58:31.699Z,100177.52
2022-10-15T16:01:04.345Z,100180.91
2022-10-15T16:03:36.498Z,100182.45
2022-10-15T16:06:12.336Z,100189.89
2022-10-15T16:08:44.219Z,100194.55
2022-10-15T16:11:16.224Z,100198.41
2022-10-15T16:13:48.552Z,100199.04
2022-10-15T16:16:21.486Z,100196.39
2022-10-15T16:18:54.742Z,100200.25
2022-10-15T16:21:28.703Z,100201.05
2022-10-15T16:26:39.888Z,100192.02
2022-10-15T16:29:11.825Z,100203.86
2022-10-15T16:31:44.417Z,100201.75
2022-10-15T16:34:16.588Z,100206.30
2022-10-15T16:36:48.600Z,100204.81
2022-10-15T16:39:21.348Z,100205.86
2022-10-15T16:41:53.376Z,100209.43
2022-10-15T16:44:25.503Z,100210.09
2022-10-15T16:46:57.882Z,100211.30
2022-10-15T16:49:30.275Z,100217.77
2022-10-15T16:52:02.543Z,100218.42
2022-10-15T16:54:34.480Z,100214.94
2022-10-15T16:57:06.973Z,100219.98
2022-10-15T16:59:39.014Z,100208.18
2022-10-15T17:02:11.804Z,100217.98
2022-10-15T17:04:44.340Z,100222.94
2022-10-15T17:07:16.727Z,100224.40
2022-10-15T17:12:27.182Z,100227.20
2022-10-15T17:14:59.385Z,100231.06
2022-10-15T17:17:31.417Z,100234.14
2022-10-15T17:20:03.535Z,100237.16
2022-10-15T17:22:35.979Z,100239.10
2022-10-15T17:25:09.330Z,100238.06
2022-10-15T17:27:41.502Z,100243.60
2022-10-15T17:30:14.193Z,100248.26
2022-10-15T17:32:49.779Z,100252.60
2022-10-15T17:35:23.340Z,100255.64
2022-10-15T17:37:56.015Z,100254.68
2022-10-15T17:40:28.224Z,100258.70
2022-10-15T17:43:00.334Z,100264.06
2022-10-15T17:45:32.462Z,100266.02
2022-10-15T17:48:04.747Z,100269.46
2022-10-15T17:51:02.240Z,100272.88
2022-10-15T17:53:37.148Z,100272.10
2022-10-15T17:56:15.105Z,100276.85
2022-10-15T17:58:47.775Z,100279.94
2022-10-15T18:01:33.701Z,100284.42
2022-10-15T18:04:17.616Z,100286.52
2022-10-15T18:06:50.068Z,100287.20
2022-10-15T18:09:29.498Z,100289.79
2022-10-15T18:12:03.782Z,100290.66
2022-10-15T18:14:38.454Z,100290.07
2022-10-15T18:17:11.014Z,100289.65
2022-10-15T18:19:43.009Z,100290.80
2022-10-15T18:22:15.202Z,100292.96
2022-10-15T18:24:47.133Z,100293.81
2022-10-15T18:27:19.374Z,100295.09
2022-10-15T18:29:51.436Z,100294.42
2022-10-15T18:32:23.538Z,100294.38
2022-10-15T18:34:55.846Z,100293.16
2022-10-15T18:37:30.347Z,100292.20
2022-10-15T18:40:02.425Z,100291.64
2022-10-15T18:42:34.400Z,100296.45
2022-10-15T18:45:09.308Z,100296.19
2022-10-15T18:47:41.181Z,100301.14
2022-10-15T18:50:13.442Z,100301.83
2022-10-15T18:52:46.406Z,100302.48
2022-10-15T18:55:18.948Z,100307.80
2022-10-15T18:57:51.065Z,100306.48
2022-10-15T19:00:23.392Z,100309.56
2022-10-15T19:02:56.623Z,100314.80
2022-10-15T19:05:29.023Z,100314.20
2022-10-15T19:08:03.986Z,100301.10
2022-10-15T19:10:36.351Z,100310.88
2022-10-15T19:13:08.368Z,100312.98
2022-10-15T19:15:40.350Z,100316.90
2022-10-15T19:18:12.757Z,100312.21
2022-10-15T19:20:47.471Z,100314.57
2022-10-15T19:23:21.870Z,100317.19
2022-10-15T19:25:54.272Z,100318.13
2022-10-15T19:28:26.456Z,100327.95
2022-10-15T19:31:00.532Z,100333.56
2022-10-15T19:33:33.707Z,100331.33
2022-10-15T19:36:06.777Z,100334.97
2022-10-15T19:38:38.951Z,100332.96
2022-10-15T19:41:11.034Z,100340.50
2022-10-15T19:43:43.044Z,100340.16
2022-10-15T19:46:15.580Z,100343.86
2022-10-15T19:48:49.529Z,100339.89
2022-10-15T19:51:25.016Z,100338.76
2022-10-15T19:53:59.969Z,100341.31
2022-10-15T19:56:35.115Z,100344.52
2022-10-15T19:59:08.498Z,100344.10
2022-10-15T20:01:40.469Z,100342.18
2022-10-15T20:04:12.665Z,100341.64
2022-10-15T20:06:45.358Z,100343.16
2022-10-15T20:09:17.710Z,100347.04
2022-10-15T20:11:49.683Z,100346.77
2022-10-15T20:14:21.894Z,100344.52
2022-10-15T20:16:53.885Z,100351.74
2022-10-15T20:19:25.804Z,100351.36
2022-10-15T20:21:58.321Z,100350.50
2022-10-15T20:24:30.379Z,100352.50
2022-10-15T20:27:03.016Z,100352.90
2022-10-15T20:29:35.383Z,100352.27
2022-10-15T20:32:17.008Z,100356.43
2022-10-15T20:35:01.124Z,100358.30
2022-10-15T20:37:33.549Z,100364.73
2022-10-15T20:40:06.639Z,100361.20
2022-10-15T20:42:38.774Z,100358.08
2022-10-15T20:45:14.571Z,100365.77
2022-10-15T20:47:49.887Z,100369.85
2022-10-15T20:50:26.252Z,100367.86
2022-10-15T20:52:59.632Z,100367.22
2022-10-15T20:55:31.632Z,100369.94
2022-10-15T20:58:03.838Z,100372.02
2022-10-15T21:00:35.758Z,100371.29
2022-10-15T21:03:07.662Z,100373.95
2022-10-15T21:05:39.555Z,100372.59
2022-10-15T21:08:11.892Z,100377.41
2022-10-15T21:10:43.943Z,100373.79
2022-10-15T21:13:16.030Z,100368.42
2022-10-15T21:15:47.851Z,100368.81
2022-10-15T21:18:19.779Z,100371.39
2022-10-15T21:20:51.770Z,100375.30
2022-10-15T21:23:24.093Z,100373.94
2022-10-15T21:25:56.920Z,100373.00
2022-10-15T21:28:30.889Z,100373.16
2022-10-15T21:31:06.688Z,100373.08
2022-10-15T21:33:39.048Z,100377.16
2022-10-15T21:36:16.283Z,100381.08
2022-10-15T21:38:48.582Z,100389.41
2022-10-15T21:41:20.612Z,100401.13
2022-10-15T21:43:52.792Z,100404.73
2022-10-15T21:46:24.833Z,100415.88
2022-10-15T21:48:57.186Z,100417.73
2022-10-15T21:51:30.392Z,100420.20
2022-10-15T21:54:06.348Z,100427.79
2022-10-15T21:56:38.650Z,100433.18
2022-10-15T21:59:10.630Z,100434.21
2022-10-15T22:01:45.288Z,100432.94
2022-10-15T22:04:17.312Z,100431.57
2022-10-15T22:06:49.149Z,100425.73
2022-10-15T22:09:21.347Z,100438.05
2022-10-15T22:11:54.355Z,100432.27
2022-10-15T22:14:26.386Z,100433.57
2022-10-15T22:16:58.557Z,100436.05
2022-10-15T22:19:31.058Z,100434.52
2022-10-15T22:22:06.464Z,100434.94
2022-10-15T22:24:38.450Z,100438.22
2022-10-15T22:27:11.096Z,100441.66
2022-10-15T22:29:44.273Z,100428.94
2022-10-15T22:32:16.220Z,100443.11
2022-10-15T22:34:48.713Z,100444.31
2022-10-15T22:37:20.725Z,100431.18
2022-10-15T22:39:53.052Z,100447.11
2022-10-15T22:42:25.516Z,100446.31
2022-10-15T22:44:57.726Z,100446.39
2022-10-15T22:47:29.763Z,100445.34
2022-10-15T22:52:39.123Z,100442.38
2022-10-15T22:55:15.223Z,100446.30
2022-10-15T22:57:47.098Z,100447.02
2022-10-15T23:00:19.646Z,100449.03
2022-10-15T23:02:54.372Z,100447.51
2022-10-15T23:05:25.084Z,100450.64
2022-10-15T23:07:59.168Z,100454.72
2022-10-15T23:10:33.098Z,100450.79
2022-10-15T23:13:05.182Z,100448.33
2022-10-15T23:15:37.134Z,100446.79
2022-10-15T23:18:09.369Z,100444.31
2022-10-15T23:20:41.869Z,100441.26
2022-10-15T23:23:14.627Z,100437.97
2022-10-15T23:25:48.957Z,100435.00
2022-10-15T23:28:21.245Z,100439.98
2022-10-15T23:30:53.463Z,100446.88
2022-10-15T23:33:25.850Z,100451.52
2022-10-15T23:36:03.524Z,100451.91
2022-10-15T23:38:35.676Z,100452.55
2022-10-15T23:41:10.682Z,100451.27
2022-10-15T23:43:43.695Z,100450.55
2022-10-15T23:46:16.582Z,100451.67
2022-10-15T23:48:49.122Z,100459.67
2022-10-15T23:51:23.752Z,100460.79
2022-10-15T23:53:58.195Z,100461.82
2022-10-15T23:56:31.611Z,100465.26
2022-10-15T23:59:03.507Z,100467.41
